createdAt,value
2018-04-08T00:01:06.912Z,36.21
2018-04-08T00:02:47.718Z,36.21
2018-04-08T00:04:26.680Z,36.24
2018-04-08T00:06:04.854Z,36.26
2018-04-08T00:07:43.320Z,36.27
2018-04-08T00:09:21.218Z,36.28
2018-04-08T00:10:59.122Z,36.31
2018-04-08T00:12:38.851Z,36.32
2018-04-08T00:14:17.262Z,36.33
2018-04-08T00:15:55.292Z,36.35
2018-04-08T00:17:33.114Z,36.38
2018-04-08T00:19:11.760Z,36.39
2018-04-08T00:20:50.258Z,36.41
2018-04-08T00:22:29.643Z,36.45
2018-04-08T00:24:07.728Z,36.46
2018-04-08T00:25:47.032Z,36.46
2018-04-08T00:27:26.210Z,36.49
2018-04-08T00:29:03.929Z,36.53
2018-04-08T00:30:43.552Z,36.54
2018-04-08T00:32:22.346Z,36.58
2018-04-08T00:34:01.278Z,36.60
2018-04-08T00:35:40.177Z,36.63
2018-04-08T00:37:20.354Z,36.66
2018-04-08T00:38:59.101Z,36.69
2018-04-08T00:40:37.549Z,36.71
2018-04-08T00:42:17.558Z,36.71
2018-04-08T00:43:56.270Z,36.73
2018-04-08T00:45:35.342Z,36.75
2018-04-08T00:47:32.378Z,36.76
2018-04-08T00:49:11.419Z,36.80
2018-04-08T00:50:53.035Z,36.81
2018-04-08T00:52:31.192Z,36.83
2018-04-08T00:54:34.601Z,36.85
2018-04-08T00:56:12.186Z,36.87
2018-04-08T00:57:50.964Z,36.88
2018-04-08T00:59:29.606Z,36.85
2018-04-08T01:01:08.907Z,36.91
2018-04-08T01:02:46.524Z,36.93
2018-04-08T01:04:24.762Z,36.93
2018-04-08T01:06:02.157Z,36.94
2018-04-08T01:07:39.675Z,36.98
2018-04-08T01:09:17.545Z,37.00
2018-04-08T01:10:55.198Z,37.02
2018-04-08T01:12:33.238Z,37.03
2018-04-08T01:14:11.365Z,37.05
2018-04-08T01:15:49.773Z,37.06
2018-04-08T01:17:27.960Z,37.07
2018-04-08T01:19:05.883Z,37.08
2018-04-08T01:20:44.582Z,37.09
2018-04-08T01:22:23.551Z,37.11
2018-04-08T01:24:02.158Z,37.13
2018-04-08T01:25:40.444Z,37.14
2018-04-08T01:27:18.517Z,37.17
2018-04-08T01:28:57.044Z,37.19
2018-04-08T01:30:35.058Z,37.22
2018-04-08T01:32:27.330Z,37.24
2018-04-08T01:34:05.232Z,37.28
2018-04-08T01:35:44.111Z,37.30
2018-04-08T01:37:22.464Z,37.33
2018-04-08T01:39:00.748Z,37.35
2018-04-08T01:40:41.926Z,37.36
2018-04-08T01:42:23.515Z,37.38
2018-04-08T01:44:04.978Z,37.40
2018-04-08T01:45:43.259Z,37.41
2018-04-08T01:47:21.743Z,37.43
2018-04-08T01:48:59.471Z,37.45
2018-04-08T01:50:38.971Z,37.46
2018-04-08T01:52:17.055Z,37.48
2018-04-08T01:53:55.996Z,37.49
2018-04-08T01:55:34.356Z,37.50
2018-04-08T01:57:11.152Z,37.51
2018-04-08T01:58:50.038Z,37.53
2018-04-08T02:00:29.014Z,37.55
2018-04-08T02:02:07.292Z,37.56
2018-04-08T02:03:46.413Z,37.58
2018-04-08T02:05:25.514Z,37.59
2018-04-08T02:07:03.290Z,37.59
2018-04-08T02:08:41.743Z,37.60
2018-04-08T02:10:20.326Z,37.59
2018-04-08T02:11:59.087Z,37.57
2018-04-08T02:13:36.609Z,37.57
2018-04-08T02:15:15.480Z,37.57
2018-04-08T02:16:54.587Z,37.58
2018-04-08T02:18:33.000Z,37.57
2018-04-08T02:20:11.933Z,37.58
2018-04-08T02:21:50.144Z,37.58
2018-04-08T02:23:30.107Z,37.54
2018-04-08T02:25:08.594Z,37.56
2018-04-08T02:26:47.410Z,37.54
2018-04-08T02:28:25.216Z,37.51
2018-04-08T02:30:05.752Z,37.50
2018-04-08T02:31:47.294Z,37.51
2018-04-08T02:33:25.100Z,37.50
2018-04-08T02:35:03.710Z,37.50
2018-04-08T02:36:41.221Z,37.54
2018-04-08T02:38:21.568Z,37.56
2018-04-08T02:39:59.326Z,37.56
2018-04-08T02:41:38.723Z,37.58
2018-04-08T02:43:17.733Z,37.58
2018-04-08T02:44:55.771Z,37.61
2018-04-08T02:46:33.630Z,37.63
2018-04-08T02:48:11.829Z,37.64
2018-04-08T02:49:49.796Z,37.67
2018-04-08T02:51:27.288Z,37.68
2018-04-08T02:53:04.860Z,37.72
2018-04-08T02:54:42.468Z,37.74
2018-04-08T02:56:20.216Z,37.77
2018-04-08T02:57:57.819Z,37.78
2018-04-08T02:59:35.145Z,37.79
2018-04-08T03:01:14.154Z,37.78
2018-04-08T03:02:52.302Z,37.79
2018-04-08T03:04:30.574Z,37.79
2018-04-08T03:06:07.858Z,37.81
2018-04-08T03:07:45.400Z,37.83
2018-04-08T03:09:23.667Z,37.84
2018-04-08T03:11:02.284Z,37.87
2018-04-08T03:12:40.556Z,37.88
2018-04-08T03:14:18.261Z,37.88
2018-04-08T03:15:56.563Z,37.90
2018-04-08T03:17:35.290Z,37.92
2018-04-08T03:19:12.652Z,37.91
2018-04-08T03:20:50.558Z,37.92
2018-04-08T03:22:29.702Z,37.97
2018-04-08T03:24:07.643Z,38.02
2018-04-08T03:25:46.299Z,38.05
2018-04-08T03:27:24.578Z,38.07
2018-04-08T03:29:03.726Z,38.09
2018-04-08T03:30:41.880Z,38.09
2018-04-08T03:32:21.773Z,38.08
2018-04-08T03:33:59.260Z,38.08
2018-04-08T03:35:39.450Z,38.07
2018-04-08T03:37:17.409Z,38.06
2018-04-08T03:38:55.497Z,38.06
2018-04-08T03:40:33.657Z,38.05
2018-04-08T03:42:10.968Z,38.07
2018-04-08T03:43:48.968Z,38.08
2018-04-08T03:45:27.960Z,38.10
2018-04-08T03:47:08.235Z,38.12
2018-04-08T03:48:46.252Z,38.15
2018-04-08T03:50:23.461Z,38.19
2018-04-08T03:52:01.747Z,38.21
2018-04-08T03:53:39.563Z,38.24
2018-04-08T03:55:16.247Z,38.26
2018-04-08T03:56:57.112Z,38.26
2018-04-08T03:58:34.522Z,38.26
2018-04-08T04:00:16.033Z,38.28
2018-04-08T04:01:54.159Z,38.30
2018-04-08T04:03:31.553Z,38.33
2018-04-08T04:05:09.632Z,38.36
2018-04-08T04:06:47.549Z,38.38
2018-04-08T04:08:26.309Z,38.41
2018-04-08T04:10:04.194Z,38.42
2018-04-08T04:11:42.252Z,38.45
2018-04-08T04:13:20.886Z,38.46
2018-04-08T04:14:58.951Z,38.47
2018-04-08T04:16:37.256Z,38.47
2018-04-08T04:18:27.934Z,38.49
2018-04-08T04:21:22.200Z,38.49
2018-04-08T04:25:19.514Z,38.50
2018-04-08T04:26:58.116Z,38.47
2018-04-08T04:28:36.810Z,38.47
2018-04-08T04:30:16.022Z,38.45
2018-04-08T04:31:54.093Z,38.44
2018-04-08T04:33:32.539Z,38.45
2018-04-08T04:35:10.658Z,38.46
2018-04-08T04:36:49.376Z,38.48
2018-04-08T04:38:26.543Z,38.49
2018-04-08T04:40:05.332Z,38.52
2018-04-08T04:43:51.424Z,38.54
2018-04-08T04:45:31.271Z,38.52
2018-04-08T04:47:08.987Z,38.53
2018-04-08T04:48:46.918Z,38.55
2018-04-08T04:50:25.077Z,38.54
2018-04-08T04:52:02.922Z,38.55
2018-04-08T04:53:41.734Z,38.56
2018-04-08T04:55:19.762Z,38.57
2018-04-08T04:56:57.839Z,38.58
2018-04-08T04:58:36.440Z,38.59
2018-04-08T05:00:16.499Z,38.61
2018-04-08T05:01:54.496Z,38.62
2018-04-08T05:03:32.515Z,38.65
2018-04-08T05:05:11.530Z,38.68
2018-04-08T05:06:49.579Z,38.70
2018-04-08T05:08:26.814Z,38.71
2018-04-08T05:10:04.788Z,38.72
2018-04-08T05:11:45.140Z,38.75
2018-04-08T05:13:23.010Z,38.75
2018-04-08T05:15:00.359Z,38.76
2018-04-08T05:16:40.722Z,38.78
2018-04-08T05:18:19.488Z,38.79
2018-04-08T05:19:57.404Z,38.80
2018-04-08T05:21:37.331Z,38.84
2018-04-08T05:23:15.234Z,38.85
2018-04-08T05:24:53.071Z,38.87
2018-04-08T05:26:30.905Z,38.87
2018-04-08T05:28:08.389Z,38.88
2018-04-08T05:29:46.385Z,38.88
2018-04-08T05:31:24.304Z,38.88
2018-04-08T05:33:01.617Z,38.88
2018-04-08T05:34:42.049Z,38.91
2018-04-08T05:36:20.812Z,38.92
2018-04-08T05:37:59.054Z,38.92
2018-04-08T05:39:36.342Z,38.92
2018-04-08T05:41:14.370Z,38.90
2018-04-08T05:42:52.985Z,38.90
2018-04-08T05:44:31.154Z,38.88
2018-04-08T05:46:10.045Z,38.86
2018-04-08T05:47:48.351Z,38.86
2018-04-08T05:49:28.340Z,38.86
2018-04-08T05:51:05.758Z,38.87
2018-04-08T05:52:43.197Z,38.88
2018-04-08T05:54:21.376Z,38.90
2018-04-08T05:55:59.651Z,38.94
2018-04-08T05:57:38.181Z,38.96
2018-04-08T05:59:16.297Z,38.97
2018-04-08T06:00:54.328Z,38.97
2018-04-08T06:02:32.620Z,38.97
2018-04-08T06:04:10.424Z,38.97
2018-04-08T06:05:48.306Z,38.94
2018-04-08T06:07:25.686Z,38.91
2018-04-08T06:09:03.160Z,38.88
2018-04-08T06:10:41.878Z,38.87
2018-04-08T06:12:19.901Z,38.90
2018-04-08T06:13:58.734Z,38.95
2018-04-08T06:15:36.827Z,39.00
2018-04-08T06:17:14.569Z,39.02
2018-04-08T06:18:52.586Z,39.05
2018-04-08T06:20:32.485Z,39.09
2018-04-08T06:22:10.777Z,39.11
2018-04-08T06:23:48.219Z,39.14
2018-04-08T06:25:28.034Z,39.15
2018-04-08T06:27:06.313Z,39.17
2018-04-08T06:28:44.899Z,39.17
2018-04-08T06:30:23.471Z,39.16
2018-04-08T06:32:01.870Z,39.14
2018-04-08T06:33:39.471Z,39.11
2018-04-08T06:35:17.843Z,39.08
2018-04-08T06:36:56.310Z,39.06
2018-04-08T06:38:36.005Z,39.05
2018-04-08T06:40:14.013Z,39.04
2018-04-08T06:41:52.856Z,39.02
2018-04-08T06:43:32.983Z,39.01
2018-04-08T06:45:10.808Z,39.01
2018-04-08T06:46:50.390Z,39.01
2018-04-08T06:48:29.295Z,39.01
2018-04-08T06:50:07.624Z,39.03
2018-04-08T06:51:46.488Z,39.06
2018-04-08T06:53:24.219Z,39.07
2018-04-08T06:55:03.936Z,39.08
2018-04-08T06:56:42.195Z,39.07
2018-04-08T06:58:20.931Z,39.08
2018-04-08T06:59:59.509Z,39.10
2018-04-08T07:01:38.717Z,39.12
2018-04-08T07:03:17.484Z,39.13
2018-04-08T07:04:56.365Z,39.15
2018-04-08T07:06:36.613Z,39.16
2018-04-08T07:08:14.862Z,39.17
2018-04-08T07:09:53.199Z,39.19
2018-04-08T07:11:31.197Z,39.22
2018-04-08T07:13:09.504Z,39.26
2018-04-08T07:14:49.126Z,39.32
2018-04-08T07:16:28.110Z,39.36
2018-04-08T07:18:07.114Z,39.41
2018-04-08T07:19:45.529Z,39.46
2018-04-08T07:21:24.953Z,39.47
2018-04-08T07:23:03.701Z,39.45
2018-04-08T07:24:43.304Z,39.42
2018-04-08T07:26:21.982Z,39.40
2018-04-08T07:28:00.666Z,39.38
2018-04-08T07:29:40.706Z,39.38
2018-04-08T07:31:19.687Z,39.38
2018-04-08T07:32:58.411Z,39.39
2018-04-08T07:34:39.254Z,39.40
2018-04-08T07:37:48.577Z,39.40
2018-04-08T07:39:27.393Z,39.42
2018-04-08T07:41:06.414Z,39.44
2018-04-08T07:42:47.289Z,39.44
2018-04-08T07:44:26.123Z,39.46
2018-04-08T07:46:04.208Z,39.48
2018-04-08T07:47:44.204Z,39.51
2018-04-08T07:49:23.797Z,39.55
2018-04-08T07:51:03.689Z,39.59
2018-04-08T07:52:43.100Z,39.61
2018-04-08T07:54:22.396Z,39.62
2018-04-08T07:56:01.025Z,39.63
2018-04-08T07:57:41.367Z,39.64
2018-04-08T07:59:20.427Z,39.67
2018-04-08T08:01:01.012Z,39.71
2018-04-08T08:02:41.399Z,39.77
2018-04-08T08:04:22.245Z,39.82
2018-04-08T08:06:01.408Z,39.86
2018-04-08T08:07:41.527Z,39.91
2018-04-08T08:09:20.435Z,39.94
2018-04-08T08:10:59.696Z,39.96
2018-04-08T08:12:39.375Z,39.99
2018-04-08T08:14:19.824Z,40.00
2018-04-08T08:15:59.852Z,40.02
2018-04-08T08:17:38.983Z,40.04
2018-04-08T08:19:17.103Z,40.04
2018-04-08T08:20:57.606Z,40.06
2018-04-08T08:22:37.141Z,40.09
2018-04-08T08:24:16.009Z,40.07
2018-04-08T08:25:54.838Z,40.07
2018-04-08T08:27:36.731Z,40.08
2018-04-08T08:29:15.126Z,40.07
2018-04-08T08:30:53.051Z,40.08
2018-04-08T08:32:31.351Z,40.08
2018-04-08T08:34:10.690Z,40.09
2018-04-08T08:35:50.874Z,40.10
2018-04-08T08:37:30.909Z,40.08
2018-04-08T08:39:10.331Z,40.12
2018-04-08T08:40:49.923Z,40.14
2018-04-08T08:42:29.872Z,40.13
2018-04-08T08:44:08.320Z,40.13
2018-04-08T08:45:48.335Z,40.12
2018-04-08T08:47:27.139Z,40.13
2018-04-08T08:49:06.320Z,40.12
2018-04-08T08:50:45.281Z,40.14
2018-04-08T08:52:23.868Z,40.15
2018-04-08T08:54:03.099Z,40.17
2018-04-08T08:55:42.713Z,40.18
2018-04-08T08:57:22.189Z,40.19
2018-04-08T08:59:01.306Z,40.20
2018-04-08T09:00:40.917Z,40.21
2018-04-08T09:02:20.788Z,40.21
2018-04-08T09:03:59.853Z,40.23
2018-04-08T09:05:40.265Z,40.21
2018-04-08T09:07:19.142Z,40.21
2018-04-08T09:08:58.730Z,40.22
2018-04-08T09:10:37.619Z,40.20
2018-04-08T09:12:17.067Z,40.20
2018-04-08T09:13:55.654Z,40.22
2018-04-08T09:15:35.121Z,40.22
2018-04-08T09:17:14.442Z,40.23
2018-04-08T09:18:54.935Z,40.23
2018-04-08T09:20:35.316Z,40.24
2018-04-08T09:22:17.003Z,40.24
2018-04-08T09:23:57.192Z,40.25
2018-04-08T09:25:37.398Z,40.23
2018-04-08T09:27:16.823Z,40.15
2018-04-08T09:28:56.258Z,40.13
2018-04-08T09:30:35.725Z,40.14
2018-04-08T09:32:15.086Z,40.13
2018-04-08T09:33:54.230Z,40.13
2018-04-08T09:35:33.272Z,40.13
2018-04-08T09:37:11.726Z,40.13
2018-04-08T09:38:50.532Z,40.10
2018-04-08T09:40:29.479Z,40.09
2018-04-08T09:42:09.560Z,40.08
2018-04-08T09:43:49.132Z,40.07
2018-04-08T09:45:28.203Z,40.05
2018-04-08T09:47:05.385Z,40.04
2018-04-08T09:48:43.957Z,40.02
2018-04-08T09:50:21.259Z,40.00
2018-04-08T09:52:00.742Z,39.98
2018-04-08T09:53:39.957Z,39.97
2018-04-08T09:55:18.523Z,39.97
2018-04-08T09:57:00.736Z,39.96
2018-04-08T09:58:39.857Z,39.95
2018-04-08T10:02:11.869Z,39.92
2018-04-08T10:03:53.086Z,39.91
2018-04-08T10:05:31.907Z,39.90
2018-04-08T10:07:11.029Z,39.89
2018-04-08T10:08:51.820Z,39.88
2018-04-08T10:10:33.723Z,39.87
2018-04-08T10:12:14.066Z,39.85
2018-04-08T10:13:54.109Z,39.84
2018-04-08T10:15:34.664Z,39.83
2018-04-08T10:17:15.307Z,39.80
2018-04-08T10:18:56.612Z,39.79
2018-04-08T10:20:34.653Z,39.79
2018-04-08T10:22:13.684Z,39.79
2018-04-08T10:23:56.007Z,39.77
2018-04-08T10:25:36.333Z,39.78
2018-04-08T10:27:16.285Z,39.76
2018-04-08T10:28:57.671Z,39.72
2018-04-08T10:30:39.053Z,39.71
2018-04-08T10:32:18.089Z,39.72
2018-04-08T10:34:01.648Z,39.70
2018-04-08T10:35:42.303Z,39.68
2018-04-08T10:37:25.088Z,39.62
2018-04-08T10:39:08.103Z,39.57
2018-04-08T10:40:49.102Z,39.56
2018-04-08T10:42:30.662Z,39.58
2018-04-08T10:44:14.284Z,39.55
2018-04-08T10:45:56.711Z,39.53
2018-04-08T10:47:38.811Z,39.47
2018-04-08T10:49:20.111Z,39.41
2018-04-08T10:51:01.287Z,39.36
2018-04-08T10:52:40.664Z,39.31
2018-04-08T10:54:23.149Z,39.27
2018-04-08T10:56:03.621Z,39.25
2018-04-08T10:57:43.013Z,39.22
2018-04-08T10:59:24.952Z,39.20
2018-04-08T11:01:06.973Z,39.20
